Time;durP1;ratioP1;P1;durP2;ratioP2;P2;SDS_P1;SDS_P2;PMS_P1;PMS_P2;Temp;Humidity;BMP_temperature;BMP_pressure;BME280_temperature;BME280_humidity;BME280_pressure;Samples;Min_cycle;Max_cycle;Signal;HPM_P1;HPM_P2
2022/11/20 00:00:58;;;;;;;;;;;;;;;18.42;74.42;100259.56;7404579;19;1477;-61
2022/11/20 00:03:27;;;;;;;;;;;;;;;18.43;74.70;100263.94;7400548;19;1300;-63
2022/11/20 00:05:55;;;;;;;;;;;;;;;18.36;74.53;100260.13;7402596;19;1481;-60
2022/11/20 00:08:23;;;;;;;;;;;;;;;18.39;73.96;100254.50;7400461;19;1401;-61
2022/11/20 00:10:51;;;;;;;;;;;;;;;18.40;73.98;100264.22;7403582;19;1347;-61
2022/11/20 00:13:20;;;;;;;;;;;;;;;18.41;74.51;100274.78;7397302;19;1863;-61
2022/11/20 00:15:51;;;;;;;;;;;;;;;18.39;74.50;100270.56;7404220;19;1548;-61
2022/11/20 00:18:19;;;;;;;;;;;;;;;18.39;73.96;100270.56;7404778;19;1484;-61
2022/11/20 00:20:47;;;;;;;;;;;;;;;18.40;74.35;100266.88;7404170;19;1525;-61
2022/11/20 00:23:15;;;;;;;;;;;;;;;18.40;74.36;100291.84;7402909;19;1649;-61
2022/11/20 00:25:44;;;;;;;;;;;;;;;18.38;74.22;100263.50;7405039;19;1303;-61
2022/11/20 00:28:12;;;;;;;;;;;;;;;18.39;74.22;100275.94;7403860;19;1359;-61
2022/11/20 00:30:40;;;;;;;;;;;;;;;18.39;74.05;100265.22;7403194;19;1689;-61
2022/11/20 00:33:11;;;;;;;;;;;;;;;18.42;73.90;100272.94;7402520;19;1835;-61
2022/11/20 00:35:39;;;;;;;;;;;;;;;18.45;74.30;100267.31;7400550;19;1708;-61
2022/11/20 00:38:08;;;;;;;;;;;;;;;18.40;73.82;100280.28;7402056;19;1270;-61
2022/11/20 00:40:36;;;;;;;;;;;;;;;18.40;74.42;100289.19;7401550;19;1548;-61
2022/11/20 00:43:04;;;;;;;;;;;;;;;18.43;74.16;100280.00;7404826;19;1516;-61
2022/11/20 00:45:32;;;;;;;;;;;;;;;18.39;74.16;100271.41;7410210;19;1434;-61
2022/11/20 00:48:00;;;;;;;;;;;;;;;18.42;73.61;100286.31;7410782;19;1642;-61
2022/11/20 00:50:31;;;;;;;;;;;;;;;18.38;73.76;100275.09;7410227;19;1544;-60
2022/11/20 00:52:59;;;;;;;;;;;;;;;18.39;74.41;100279.44;7408587;19;1470;-61
2022/11/20 00:55:28;;;;;;;;;;;;;;;18.40;74.00;100272.25;7404083;19;1853;-61
2022/11/20 00:57:57;;;;;;;;;;;;;;;18.38;74.37;100274.22;7407973;19;1777;-61
2022/11/20 01:00:25;;;;;;;;;;;;;;;18.36;74.42;100271.69;7404693;19;1516;-61
2022/11/20 01:02:54;;;;;;;;;;;;;;;18.34;74.47;100252.25;7403779;19;1417;-61
2022/11/20 01:05:22;;;;;;;;;;;;;;;18.36;74.14;100234.19;7407011;19;1263;-60
2022/11/20 01:07:53;;;;;;;;;;;;;;;18.39;74.34;100233.09;7410918;19;1438;-61
2022/11/20 01:10:21;;;;;;;;;;;;;;;18.34;73.69;100238.84;7409444;19;1408;-61
2022/11/20 01:13:36;;;;;;;;;;;;;;;18.37;74.25;100219.00;7410148;19;1508;-61
2022/11/20 01:15:37;;;;;;;;;;;;;;;18.39;74.14;100225.06;7405056;19;1837;-61
2022/11/20 01:18:06;;;;;;;;;;;;;;;18.37;74.38;100216.34;7410414;19;1430;-61
2022/11/20 01:20:36;;;;;;;;;;;;;;;18.37;74.02;100209.13;7408189;19;1549;-61
2022/11/20 01:23:07;;;;;;;;;;;;;;;18.41;74.19;100218.56;7411090;19;1539;-61
2022/11/20 01:25:37;;;;;;;;;;;;;;;18.39;74.05;100207.16;7410282;19;1272;-61
2022/11/20 01:28:05;;;;;;;;;;;;;;;18.42;73.51;100206.00;7408314;19;1260;-62
2022/11/20 01:30:33;;;;;;;;;;;;;;;18.38;73.79;100213.53;7408789;19;1511;-61
2022/11/20 01:33:01;;;;;;;;;;;;;;;18.39;73.90;100196.44;7409582;19;1568;-62
2022/11/20 01:35:29;;;;;;;;;;;;;;;18.39;73.94;100191.09;7406094;19;1882;-61
2022/11/20 01:37:58;;;;;;;;;;;;;;;18.38;74.18;100204.63;7409188;19;1552;-61
2022/11/20 01:40:28;;;;;;;;;;;;;;;18.40;73.70;100202.63;7409675;19;1404;-62
2022/11/20 01:46:02;;;;;;;;;;;;;;;18.37;74.00;100202.94;7409191;19;1354;-61
2022/11/20 01:48:32;;;;;;;;;;;;;;;18.34;74.19;100200.56;7408797;19;1501;-61
2022/11/20 01:51:02;;;;;;;;;;;;;;;18.33;73.83;100190.84;7408407;19;1567;-61
2022/11/20 01:53:32;;;;;;;;;;;;;;;18.33;74.09;100196.19;7407356;19;1838;-61
2022/11/20 01:56:05;;;;;;;;;;;;;;;18.33;74.35;100222.97;7408406;19;1478;-61
2022/11/20 01:58:35;;;;;;;;;;;;;;;18.36;73.84;100217.31;7408748;19;1566;-61
2022/11/20 02:01:03;;;;;;;;;;;;;;;18.34;73.89;100216.59;7407425;19;1412;-61
2022/11/20 02:03:32;;;;;;;;;;;;;;;18.34;73.88;100230.81;7406822;19;1703;-61
2022/11/20 02:06:04;;;;;;;;;;;;;;;18.40;74.50;100192.81;7406206;19;1542;-61
2022/11/20 02:08:32;;;;;;;;;;;;;;;18.60;73.92;100204.28;7403500;19;1548;-61
2022/11/20 02:11:03;;;;;;;;;;;;;;;18.73;73.95;100198.59;7400309;19;1626;-61
2022/11/20 02:13:44;;;;;;;;;;;;;;;18.77;74.21;100202.66;7406901;19;1636;-60
2022/11/20 02:16:15;;;;;;;;;;;;;;;18.69;75.02;100195.34;7408540;19;1256;-60
2022/11/20 02:18:44;;;;;;;;;;;;;;;18.64;75.01;100194.09;7408040;19;1276;-60
2022/11/20 02:21:16;;;;;;;;;;;;;;;18.76;76.04;100178.69;7408504;19;1342;-60
2022/11/20 02:23:56;;;;;;;;;;;;;;;18.88;76.30;100189.09;7407700;19;1231;-62
2022/11/20 02:26:25;;;;;;;;;;;;;;;18.90;76.46;100178.25;7409141;19;1236;-63
2022/11/20 02:28:54;;;;;;;;;;;;;;;18.84;76.92;100174.31;7407745;19;1486;-62
2022/11/20 02:31:22;;;;;;;;;;;;;;;18.79;76.47;100162.34;7407836;19;1749;-64
2022/11/20 02:33:56;;;;;;;;;;;;;;;18.71;77.41;100178.31;7407896;19;1834;-63
2022/11/20 02:36:25;;;;;;;;;;;;;;;18.76;77.22;100166.16;7407928;19;1359;-61
2022/11/20 02:38:56;;;;;;;;;;;;;;;18.86;76.85;100156.25;7406994;19;1588;-61
2022/11/20 02:41:32;;;;;;;;;;;;;;;19.02;76.20;100158.28;7407562;19;1158;-60
2022/11/20 02:44:01;;;;;;;;;;;;;;;19.74;74.52;100160.19;7406297;19;1672;-60
2022/11/20 02:46:29;;;;;;;;;;;;;;;19.95;73.91;100157.97;7406321;19;1719;-61
2022/11/20 02:48:57;;;;;;;;;;;;;;;20.08;73.71;100162.94;7405869;19;1368;-61
2022/11/20 02:51:27;;;;;;;;;;;;;;;20.37;73.03;100151.03;7405630;19;1541;-61
2022/11/20 02:53:57;;;;;;;;;;;;;;;20.35;73.31;100153.91;7406524;19;1871;-61
2022/11/20 02:56:26;;;;;;;;;;;;;;;20.59;72.24;100134.41;7407760;19;1248;-61
2022/11/20 02:58:54;;;;;;;;;;;;;;;20.95;71.22;100150.34;7405939;19;1618;-61
2022/11/20 03:01:23;;;;;;;;;;;;;;;21.06;70.41;100144.63;7397919;19;1339;-60
2022/11/20 03:03:54;;;;;;;;;;;;;;;20.98;70.99;100139.22;7404547;19;1623;-64
2022/11/20 03:06:22;;;;;;;;;;;;;;;20.18;73.46;100136.84;7403932;19;1139;-65
2022/11/20 03:08:50;;;;;;;;;;;;;;;19.68;75.47;100154.41;7404372;19;1794;-64
2022/11/20 03:11:21;;;;;;;;;;;;;;;19.36;75.76;100152.28;7406103;19;1309;-64
2022/11/20 03:13:50;;;;;;;;;;;;;;;19.25;76.77;100139.91;7406104;19;1447;-65
2022/11/20 03:16:19;;;;;;;;;;;;;;;19.14;76.47;100136.63;7403459;19;1838;-65
2022/11/20 03:18:47;;;;;;;;;;;;;;;19.12;77.05;100155.56;7404324;19;1204;-64
2022/11/20 03:21:16;;;;;;;;;;;;;;;19.12;76.63;100139.47;7406064;19;1568;-64
2022/11/20 03:23:45;;;;;;;;;;;;;;;19.08;76.81;100136.25;7405306;19;1294;-64
2022/11/20 03:26:14;;;;;;;;;;;;;;;19.05;77.03;100141.91;7406623;19;1165;-65
2022/11/20 03:28:49;;;;;;;;;;;;;;;18.98;76.85;100148.88;7404390;19;1333;-64
2022/11/20 03:31:19;;;;;;;;;;;;;;;18.95;76.65;100138.44;7405517;19;1376;-64
2022/11/20 03:33:48;;;;;;;;;;;;;;;18.92;77.05;100141.44;7403848;19;1518;-65
2022/11/20 03:36:17;;;;;;;;;;;;;;;18.91;77.18;100153.13;7403271;19;1857;-65
2022/11/20 03:38:46;;;;;;;;;;;;;;;18.98;77.15;100159.59;7403430;19;1329;-65
2022/11/20 03:41:15;;;;;;;;;;;;;;;18.97;76.92;100159.72;7405857;19;1235;-65
2022/11/20 03:43:49;;;;;;;;;;;;;;;18.96;76.98;100152.66;7403116;19;1317;-65
2022/11/20 03:46:17;;;;;;;;;;;;;;;18.92;77.01;100156.63;7405873;19;1446;-65
2022/11/20 03:48:46;;;;;;;;;;;;;;;18.87;76.98;100167.81;7403870;19;1401;-65
2022/11/20 03:51:15;;;;;;;;;;;;;;;18.84;77.37;100168.09;7404016;19;1469;-65
2022/11/20 03:53:44;;;;;;;;;;;;;;;18.81;76.58;100165.75;7405335;19;1369;-65
2022/11/20 03:56:13;;;;;;;;;;;;;;;18.78;77.57;100168.66;7403221;19;1866;-65
2022/11/20 03:58:42;;;;;;;;;;;;;;;18.84;77.21;100166.28;7403654;19;1565;-65
2022/11/20 04:01:15;;;;;;;;;;;;;;;18.85;77.23;100169.81;7403455;19;1641;-64
2022/11/20 04:03:45;;;;;;;;;;;;;;;18.87;77.15;100162.47;7402976;19;1553;-65
2022/11/20 04:06:14;;;;;;;;;;;;;;;18.85;76.99;100157.25;7404392;19;1275;-65
2022/11/20 04:08:43;;;;;;;;;;;;;;;19.27;75.57;100174.63;7403399;19;1632;-65
2022/11/20 04:11:12;;;;;;;;;;;;;;;19.86;73.50;100197.34;7404751;19;1355;-65
2022/11/20 04:13:40;;;;;;;;;;;;;;;20.42;71.95;100194.38;7404087;19;1687;-65
2022/11/20 04:16:10;;;;;;;;;;;;;;;20.24;72.25;100197.97;7402353;19;1872;-65
2022/11/20 04:18:41;;;;;;;;;;;;;;;20.44;71.89;100190.53;7403720;19;1335;-65
2022/11/20 04:21:09;;;;;;;;;;;;;;;20.65;71.31;100209.00;7403081;19;1430;-65
2022/11/20 04:23:38;;;;;;;;;;;;;;;20.81;71.11;100212.72;7402529;19;1269;-65
2022/11/20 04:26:07;;;;;;;;;;;;;;;20.32;72.20;100224.03;7404900;19;1271;-65
2022/11/20 04:28:37;;;;;;;;;;;;;;;19.82;74.23;100222.78;7403953;19;1654;-64
2022/11/20 04:31:06;;;;;;;;;;;;;;;19.52;75.00;100215.06;7403811;19;1607;-65
2022/11/20 04:33:35;;;;;;;;;;;;;;;19.34;75.63;100194.47;7403841;19;1330;-64
2022/11/20 04:36:07;;;;;;;;;;;;;;;19.18;75.31;100186.25;7400793;19;1842;-65
2022/11/20 04:38:36;;;;;;;;;;;;;;;19.14;75.72;100190.22;7402979;19;1330;-65
2022/11/20 04:41:05;;;;;;;;;;;;;;;19.16;75.95;100188.22;7403289;19;1873;-64
2022/11/20 04:43:34;;;;;;;;;;;;;;;19.13;76.32;100196.59;7402215;19;1443;-65
2022/11/20 04:46:03;;;;;;;;;;;;;;;19.13;76.13;100199.28;7403802;19;1481;-65
2022/11/20 04:48:32;;;;;;;;;;;;;;;19.06;76.22;100191.00;7403050;19;1213;-65
2022/11/20 04:51:00;;;;;;;;;;;;;;;19.03;75.66;100208.19;7401796;19;1552;-65
2022/11/20 04:53:31;;;;;;;;;;;;;;;19.00;76.04;100197.78;7402543;19;1441;-65
2022/11/20 04:56:01;;;;;;;;;;;;;;;18.97;74.70;100207.97;7400999;19;1859;-65
2022/11/20 04:58:30;;;;;;;;;;;;;;;18.93;76.33;100209.25;7402246;19;1262;-65
2022/11/20 05:01:03;;;;;;;;;;;;;;;18.96;76.62;100199.09;7401718;19;1535;-65
2022/11/20 05:03:31;;;;;;;;;;;;;;;18.98;76.29;100205.13;7402714;19;1364;-65
2022/11/20 05:06:02;;;;;;;;;;;;;;;18.97;76.11;100186.53;7403075;19;1346;-65
2022/11/20 05:08:34;;;;;;;;;;;;;;;18.95;76.27;100192.03;7402010;19;1326;-65
2022/11/20 05:11:03;;;;;;;;;;;;;;;18.90;76.04;100199.69;7401883;19;1554;-65
2022/11/20 05:13:31;;;;;;;;;;;;;;;18.88;75.59;100207.03;7402103;19;1646;-65
2022/11/20 05:16:03;;;;;;;;;;;;;;;18.86;75.19;100201.81;7401173;19;1849;-65
2022/11/20 05:18:31;;;;;;;;;;;;;;;19.24;74.74;100196.38;7401046;19;1626;-65
2022/11/20 05:21:00;;;;;;;;;;;;;;;19.92;72.75;100211.16;7401842;19;1548;-64
2022/11/20 05:23:28;;;;;;;;;;;;;;;20.72;70.46;100211.88;7401052;19;1535;-65
2022/11/20 05:26:00;;;;;;;;;;;;;;;20.84;69.64;100201.69;7401950;19;1363;-65
2022/11/20 05:28:29;;;;;;;;;;;;;;;21.08;69.54;100205.47;7404013;19;1686;-64
2022/11/20 05:30:57;;;;;;;;;;;;;;;21.21;69.41;100208.53;7407904;19;1614;-64
2022/11/20 05:33:26;;;;;;;;;;;;;;;21.15;69.99;100204.66;7409389;19;1516;-64
2022/11/20 05:35:54;;;;;;;;;;;;;;;20.56;72.57;100225.19;7407154;19;1841;-64
2022/11/20 05:38:22;;;;;;;;;;;;;;;20.03;73.90;100243.09;7407332;19;1263;-64
2022/11/20 05:40:50;;;;;;;;;;;;;;;19.70;74.70;100272.28;7407960;19;1561;-64
2022/11/20 05:43:21;;;;;;;;;;;;;;;19.52;75.27;100291.03;7408121;19;1350;-64
2022/11/20 05:45:54;;;;;;;;;;;;;;;19.38;74.85;100273.63;7409883;19;1155;-64
2022/11/20 05:48:23;;;;;;;;;;;;;;;19.28;74.81;100292.44;7409569;19;1369;-64
2022/11/20 05:50:51;;;;;;;;;;;;;;;19.23;74.92;100285.81;7407220;19;1774;-64
2022/11/20 05:53:19;;;;;;;;;;;;;;;19.18;76.11;100288.97;7409544;19;1543;-64
2022/11/20 05:55:48;;;;;;;;;;;;;;;19.13;76.28;100301.94;7406426;19;1858;-68
2022/11/20 05:58:16;;;;;;;;;;;;;;;19.16;77.06;100303.47;7406082;19;1546;-62
2022/11/20 06:00:47;;;;;;;;;;;;;;;19.16;77.13;100304.34;7407226;19;1631;-70
2022/11/20 06:03:15;;;;;;;;;;;;;;;19.15;76.31;100309.84;7408480;19;1533;-63
2022/11/20 06:05:43;;;;;;;;;;;;;;;19.12;76.73;100323.53;7407142;19;1457;-63
2022/11/20 06:08:12;;;;;;;;;;;;;;;19.06;76.25;100323.16;7400928;19;1469;-63
2022/11/20 06:10:40;;;;;;;;;;;;;;;19.03;76.41;100322.59;7408217;19;1274;-63
2022/11/20 06:13:08;;;;;;;;;;;;;;;19.01;76.72;100335.28;7407134;19;1268;-63
2022/11/20 06:15:37;;;;;;;;;;;;;;;18.98;76.42;100330.22;7406286;19;1858;-63
2022/11/20 06:18:07;;;;;;;;;;;;;;;18.95;76.08;100335.88;7408094;19;1216;-63
2022/11/20 06:20:36;;;;;;;;;;;;;;;18.93;77.01;100349.41;7409419;19;1260;-63
2022/11/20 06:23:04;;;;;;;;;;;;;;;18.93;75.96;100359.28;7406650;19;1726;-63
2022/11/20 06:25:32;;;;;;;;;;;;;;;18.92;75.86;100379.88;7407899;19;1758;-63
2022/11/20 06:28:01;;;;;;;;;;;;;;;19.32;75.78;100376.09;7407566;19;1508;-63
2022/11/20 06:30:29;;;;;;;;;;;;;;;20.00;73.70;100374.94;7406879;19;1607;-63
2022/11/20 06:32:57;;;;;;;;;;;;;;;20.66;71.55;100381.78;7405219;19;1264;-63
2022/11/20 06:35:28;;;;;;;;;;;;;;;20.70;71.86;100409.19;7406452;19;1861;-66
2022/11/20 06:37:58;;;;;;;;;;;;;;;20.99;71.12;100415.13;7405816;19;1867;-62
2022/11/20 06:40:26;;;;;;;;;;;;;;;21.06;70.77;100415.31;7405989;19;1429;-60
2022/11/20 06:42:56;;;;;;;;;;;;;;;21.02;71.11;100409.41;7405736;19;1592;-67
2022/11/20 06:45:24;;;;;;;;;;;;;;;20.62;72.11;100418.00;7407360;19;1473;-63
2022/11/20 06:47:52;;;;;;;;;;;;;;;20.16;73.73;100444.06;7406464;19;1455;-62
2022/11/20 06:50:20;;;;;;;;;;;;;;;19.85;74.81;100445.19;7406049;19;1294;-63
2022/11/20 06:52:51;;;;;;;;;;;;;;;19.63;75.63;100453.59;7404974;19;1414;-64
2022/11/20 06:55:20;;;;;;;;;;;;;;;19.49;76.36;100454.91;7405976;19;1860;-63
2022/11/20 06:57:48;;;;;;;;;;;;;;;19.41;76.02;100476.25;7406201;19;1639;-64
2022/11/20 07:00:17;;;;;;;;;;;;;;;19.38;75.87;100489.97;7398763;19;1075;-64
2022/11/20 07:02:45;;;;;;;;;;;;;;;19.37;75.43;100499.81;7393429;19;1560;-76
2022/11/20 07:05:13;;;;;;;;;;;;;;;19.39;75.63;100508.56;7394974;19;1144;-65
2022/11/20 07:07:42;;;;;;;;;;;;;;;19.39;76.51;100502.38;7393643;19;1342;-62
2022/11/20 07:10:13;;;;;;;;;;;;;;;19.35;76.30;100477.66;7395155;19;1243;-63
2022/11/20 07:12:41;;;;;;;;;;;;;;;19.31;76.61;100492.34;7394690;19;1165;-62
2022/11/20 07:15:10;;;;;;;;;;;;;;;19.27;76.49;100485.59;7394006;19;1318;-64
2022/11/20 07:17:39;;;;;;;;;;;;;;;19.24;76.40;100481.38;7389771;19;1856;-69
2022/11/20 07:20:07;;;;;;;;;;;;;;;19.17;75.90;100485.59;7390817;19;1468;-71
2022/11/20 07:22:36;;;;;;;;;;;;;;;19.14;76.63;100488.59;7392968;19;1196;-70
2022/11/20 07:25:04;;;;;;;;;;;;;;;19.11;76.62;100498.75;7392677;19;1889;-69
2022/11/20 07:27:35;;;;;;;;;;;;;;;19.08;76.22;100500.72;7392546;19;1192;-69
2022/11/20 07:30:03;;;;;;;;;;;;;;;19.15;76.07;100532.31;7394312;19;1327;-61
2022/11/20 07:32:32;;;;;;;;;;;;;;;19.11;75.91;100525.56;7394673;19;1247;-72
2022/11/20 07:35:00;;;;;;;;;;;;;;;19.04;77.23;100493.97;7394604;19;1283;-70
2022/11/20 07:37:28;;;;;;;;;;;;;;;19.02;76.95;100520.06;7387939;19;1869;-68
2022/11/20 07:39:57;;;;;;;;;;;;;;;19.10;76.77;100521.16;7393796;19;1217;-63
2022/11/20 07:42:28;;;;;;;;;;;;;;;19.10;76.56;100510.44;7390108;19;1273;-72
2022/11/20 07:44:59;;;;;;;;;;;;;;;19.02;76.37;100495.94;7394492;19;1252;-68
2022/11/20 07:47:27;;;;;;;;;;;;;;;19.02;77.03;100493.25;7388306;19;1204;-63
2022/11/20 07:49:55;;;;;;;;;;;;;;;19.05;75.96;100509.03;7392681;19;1523;-63
2022/11/20 07:52:24;;;;;;;;;;;;;;;19.10;76.16;100521.16;7392123;19;1486;-64
2022/11/20 07:54:52;;;;;;;;;;;;;;;19.12;76.90;100511.16;7394477;19;1315;-64
2022/11/20 07:57:20;;;;;;;;;;;;;;;19.53;75.62;100535.94;7386290;19;1855;-77
2022/11/20 07:59:48;;;;;;;;;;;;;;;20.40;72.92;100532.94;7395664;19;1282;-70
2022/11/20 08:02:19;;;;;;;;;;;;;;;20.78;71.20;100519.41;7394082;19;1339;-75
2022/11/20 08:04:48;;;;;;;;;;;;;;;20.93;71.11;100517.88;7392695;19;1273;-73
2022/11/20 08:07:16;;;;;;;;;;;;;;;20.78;71.20;100516.72;7393520;19;1359;-74
2022/11/20 08:09:44;;;;;;;;;;;;;;;21.05;70.50;100484.38;7389960;19;1129;-66
2022/11/20 08:15:00;;;;;;;;;;;;;;;20.83;71.13;100504.53;7390913;19;1212;-72
2022/11/20 08:17:31;;;;;;;;;;;;;;;20.29;73.42;100518.84;7377257;19;1882;-74
2022/11/20 08:19:59;;;;;;;;;;;;;;;19.90;74.36;100490.38;7388555;19;1597;-71
2022/11/20 08:22:27;;;;;;;;;;;;;;;19.65;75.21;100490.00;7391322;19;1295;-61
2022/11/20 08:24:56;;;;;;;;;;;;;;;19.53;74.13;100493.00;7389630;19;1202;-66
2022/11/20 08:27:24;;;;;;;;;;;;;;;19.47;74.19;100499.81;7391070;19;1315;-61
2022/11/20 08:29:52;;;;;;;;;;;;;;;19.48;75.26;100496.97;7391820;19;1401;-65
2022/11/20 08:32:21;;;;;;;;;;;;;;;19.53;75.06;100496.53;7400766;19;1647;-60
2022/11/20 08:34:52;;;;;;;;;;;;;;;19.48;74.98;100502.34;7403130;19;1242;-65
2022/11/20 08:37:20;;;;;;;;;;;;;;;19.37;75.90;100481.06;7399577;19;1857;-70
2022/11/20 08:39:48;;;;;;;;;;;;;;;19.31;76.29;100491.53;7403376;19;1334;-75
2022/11/20 08:42:17;;;;;;;;;;;;;;;19.25;75.81;100476.84;7401593;19;1631;-65
2022/11/20 08:44:45;;;;;;;;;;;;;;;19.22;76.50;100472.63;7403407;19;1413;-74
2022/11/20 08:47:14;;;;;;;;;;;;;;;19.21;76.38;100459.38;7403445;19;1491;-65
2022/11/20 08:49:42;;;;;;;;;;;;;;;19.24;76.17;100465.28;7399056;19;1347;-74
2022/11/20 08:52:13;;;;;;;;;;;;;;;19.20;76.67;100479.97;7401365;19;1517;-73
2022/11/20 08:54:41;;;;;;;;;;;;;;;19.16;76.44;100478.56;7403655;19;1356;-73
2022/11/20 08:57:10;;;;;;;;;;;;;;;19.16;76.86;100509.88;7401468;19;1859;-57
2022/11/20 08:59:38;;;;;;;;;;;;;;;19.08;76.03;100476.59;7402303;19;1192;-56
2022/11/20 09:02:06;;;;;;;;;;;;;;;19.04;77.00;100480.56;7400496;19;1286;-56
2022/11/20 09:04:35;;;;;;;;;;;;;;;19.04;76.78;100485.09;7409526;19;1440;-56
2022/11/20 09:07:03;;;;;;;;;;;;;;;19.01;76.74;100474.63;7410174;19;1376;-56
2022/11/20 09:09:35;;;;;;;;;;;;;;;19.01;75.40;100475.47;7408824;19;1321;-56
2022/11/20 09:12:03;;;;;;;;;;;;;;;19.00;76.84;100471.13;7408923;19;1410;-61
2022/11/20 09:14:31;;;;;;;;;;;;;;;19.03;76.59;100467.28;7410757;19;1424;-66
2022/11/20 09:17:00;;;;;;;;;;;;;;;19.04;76.79;100480.56;7408052;19;1863;-56
2022/11/20 09:19:28;;;;;;;;;;;;;;;19.07;76.66;100469.53;7409111;19;1274;-56
2022/11/20 09:21:56;;;;;;;;;;;;;;;19.09;76.18;100477.44;7409307;19;1333;-57
2022/11/20 09:24:25;;;;;;;;;;;;;;;19.03;76.71;100483.38;7408396;19;1615;-57
2022/11/20 09:26:56;;;;;;;;;;;;;;;18.93;75.73;100478.03;7410485;19;1373;-57
2022/11/20 09:29:24;;;;;;;;;;;;;;;18.89;76.06;100468.56;7411033;19;1584;-57
2022/11/20 09:31:52;;;;;;;;;;;;;;;18.90;76.64;100442.63;7410210;19;1322;-57
2022/11/20 09:34:20;;;;;;;;;;;;;;;18.84;76.94;100446.72;7408580;19;1636;-57
2022/11/20 09:36:49;;;;;;;;;;;;;;;18.86;75.90;100439.38;7406224;19;1863;-57
2022/11/20 09:39:17;;;;;;;;;;;;;;;18.83;76.72;100439.69;7410196;19;1424;-57
2022/11/20 09:41:56;;;;;;;;;;;;;;;18.85;76.61;100443.06;7333659;19;14831;-57
2022/11/20 09:44:37;;;;;;;;;;;;;;;18.86;76.45;100440.25;7407378;19;1343;-57
2022/11/20 09:47:10;;;;;;;;;;;;;;;18.91;76.75;100433.63;7405028;19;2181;-57
2022/11/20 09:49:49;;;;;;;;;;;;;;;19.83;73.46;100428.38;7410168;19;1551;-57
2022/11/20 09:52:22;;;;;;;;;;;;;;;20.29;71.98;100411.44;7406556;19;1749;-57
2022/11/20 09:54:51;;;;;;;;;;;;;;;20.41;71.84;100407.53;7407390;19;1551;-57
2022/11/20 09:57:21;;;;;;;;;;;;;;;20.34;72.29;100407.31;7405102;19;1873;-56
2022/11/20 09:59:53;;;;;;;;;;;;;;;20.63;71.10;100382.06;7408469;19;1360;-57
2022/11/20 10:02:28;;;;;;;;;;;;;;;20.62;70.98;100381.22;7406785;19;1433;-57
2022/11/20 10:04:59;;;;;;;;;;;;;;;20.44;71.58;100380.38;7408443;19;1472;-57
2022/11/20 10:07:32;;;;;;;;;;;;;;;19.93;72.82;100376.50;7407787;19;1709;-57
2022/11/20 10:10:01;;;;;;;;;;;;;;;19.68;73.76;100381.56;7407118;19;1413;-57
2022/11/20 10:12:34;;;;;;;;;;;;;;;19.40;74.18;100392.28;7405914;19;1311;-57
2022/11/20 10:15:10;;;;;;;;;;;;;;;19.25;75.05;100408.00;7406174;19;1287;-56
2022/11/20 10:17:51;;;;;;;;;;;;;;;19.13;73.19;100411.00;7404174;19;1844;-57
2022/11/20 10:20:23;;;;;;;;;;;;;;;19.12;75.06;100406.63;7400433;19;1509;-57
2022/11/20 10:22:59;;;;;;;;;;;;;;;19.11;75.56;100389.69;7400700;19;1188;-57
2022/11/20 10:25:31;;;;;;;;;;;;;;;19.10;75.68;100400.56;7404237;19;1230;-57
2022/11/20 10:28:12;;;;;;;;;;;;;;;19.06;75.54;100414.25;7402855;19;1266;-57
2022/11/20 10:30:45;;;;;;;;;;;;;;;18.99;75.52;100413.13;7406281;19;1349;-57
2022/11/20 10:33:19;;;;;;;;;;;;;;;19.00;75.73;100417.53;7405449;19;1218;-57
2022/11/20 10:35:51;;;;;;;;;;;;;;;18.95;75.53;100403.69;7406320;19;1209;-56
2022/11/20 10:38:23;;;;;;;;;;;;;;;18.91;75.94;100404.13;7403936;19;1858;-57
2022/11/20 10:41:24;;;;;;;;;;;;;;;18.86;75.96;100399.19;7405962;19;1352;-56
2022/11/20 10:43:43;;;;;;;;;;;;;;;18.85;75.60;100432.34;7405693;19;1326;-57
2022/11/20 10:46:17;;;;;;;;;;;;;;;18.86;75.99;100424.16;7406422;19;1339;-56
2022/11/20 10:48:46;;;;;;;;;;;;;;;18.96;74.83;100440.25;7402447;19;1761;-59
2022/11/20 10:51:18;;;;;;;;;;;;;;;19.03;75.92;100445.84;7404562;19;1458;-57
2022/11/20 10:53:57;;;;;;;;;;;;;;;19.03;75.80;100444.03;7405223;19;1349;-59
2022/11/20 10:56:29;;;;;;;;;;;;;;;19.00;75.83;100419.34;7403760;19;1742;-57
2022/11/20 10:59:05;;;;;;;;;;;;;;;18.96;75.53;100425.97;7405366;19;1521;-57
2022/11/20 11:01:41;;;;;;;;;;;;;;;18.89;76.56;100433.75;7401793;19;1385;-57
2022/11/20 11:04:17;;;;;;;;;;;;;;;18.82;76.44;100441.53;7404582;19;1388;-57
2022/11/20 11:06:50;;;;;;;;;;;;;;;18.66;69.46;100442.06;7398252;19;1674;-57
2022/11/20 11:09:22;;;;;;;;;;;;;;;18.66;75.93;100460.81;7399875;19;1436;-57
2022/11/20 11:11:50;;;;;;;;;;;;;;;18.69;75.74;100432.88;7399998;19;1307;-57
2022/11/20 11:14:18;;;;;;;;;;;;;;;18.64;76.19;100438.69;7399433;19;1343;-57
2022/11/20 11:16:54;;;;;;;;;;;;;;;18.78;75.44;100433.84;7402524;19;1857;-57
2022/11/20 11:19:23;;;;;;;;;;;;;;;19.55;72.85;100440.06;7402890;19;1258;-57
2022/11/20 11:21:53;;;;;;;;;;;;;;;20.24;70.67;100433.41;7401630;19;1338;-57
2022/11/20 11:24:23;;;;;;;;;;;;;;;20.35;69.86;100446.59;7401969;19;1525;-57
2022/11/20 11:27:03;;;;;;;;;;;;;;;20.15;71.23;100427.06;7399094;19;1337;-57
2022/11/20 11:29:32;;;;;;;;;;;;;;;20.17;70.65;100422.41;7403972;19;1507;-57
2022/11/20 11:32:11;;;;;;;;;;;;;;;20.34;70.20;100434.16;7403511;19;1155;-57
2022/11/20 11:34:39;;;;;;;;;;;;;;;20.16;70.57;100427.94;7401774;19;1369;-57
2022/11/20 11:37:13;;;;;;;;;;;;;;;19.70;72.33;100432.41;7404717;19;1857;-57
2022/11/20 11:39:43;;;;;;;;;;;;;;;19.41;72.67;100442.22;7405713;19;1797;-57
2022/11/20 11:42:15;;;;;;;;;;;;;;;19.24;73.54;100429.59;7404684;19;1662;-57
2022/11/20 11:47:33;;;;;;;;;;;;;;;18.96;67.78;100450.09;7404881;19;1682;-57
2022/11/20 11:50:16;;;;;;;;;;;;;;;18.91;68.63;100471.97;7405406;19;1341;-57
2022/11/20 11:52:46;;;;;;;;;;;;;;;18.85;73.19;100470.69;7401958;19;1577;-57
2022/11/20 11:55:19;;;;;;;;;;;;;;;18.90;73.69;100466.72;7404450;19;1555;-57
2022/11/20 11:57:49;;;;;;;;;;;;;;;18.96;72.73;100461.69;7404641;19;1853;-57
2022/11/20 12:00:18;;;;;;;;;;;;;;;18.94;73.82;100468.13;7404759;19;1563;-57
2022/11/20 12:02:56;;;;;;;;;;;;;;;18.89;74.41;100476.63;7402606;19;1544;-57
2022/11/20 12:05:26;;;;;;;;;;;;;;;18.83;74.05;100461.94;7404647;19;1598;-57
2022/11/20 12:07:56;;;;;;;;;;;;;;;18.79;74.70;100459.66;7404018;19;1312;-57
2022/11/20 12:10:25;;;;;;;;;;;;;;;18.77;73.96;100461.66;7403064;19;1979;-57
2022/11/20 12:13:01;;;;;;;;;;;;;;;18.74;74.51;100459.25;7403156;19;1634;-57
2022/11/20 12:15:32;;;;;;;;;;;;;;;18.73;74.40;100454.88;7402580;19;1676;-57
2022/11/20 12:18:03;;;;;;;;;;;;;;;18.72;74.45;100454.03;7403301;19;1834;-56
2022/11/20 12:20:35;;;;;;;;;;;;;;;18.74;74.44;100462.78;7404838;19;1612;-57
2022/11/20 12:23:09;;;;;;;;;;;;;;;18.75;74.34;100479.69;7403996;19;1785;-56
2022/11/20 12:25:38;;;;;;;;;;;;;;;18.78;74.25;100482.06;7402968;19;1640;-57
2022/11/20 12:28:13;;;;;;;;;;;;;;;19.24;73.39;100475.19;7402666;19;1366;-60
2022/11/20 12:30:44;;;;;;;;;;;;;;;20.03;70.67;100487.34;7402410;19;1351;-58
2022/11/20 12:33:31;;;;;;;;;;;;;;;20.73;68.32;100478.72;7402393;19;1386;-57
2022/11/20 12:36:04;;;;;;;;;;;;;;;21.00;67.86;100472.41;7403327;19;1394;-58
2022/11/20 12:38:39;;;;;;;;;;;;;;;20.85;69.93;100472.13;7409319;19;1867;-57
2022/11/20 12:45:08;;;;;;;;;;;;;;;21.19;68.43;100496.41;7416314;19;1552;-56
2022/11/20 12:46:50;;;;;;;;;;;;;;;20.62;70.55;100469.06;7418691;19;1533;-64
2022/11/20 12:49:31;;;;;;;;;;;;;;;20.29;72.47;100457.09;7417060;19;1557;-57
2022/11/20 12:52:18;;;;;;;;;;;;;;;19.84;72.84;100459.59;7414417;19;1672;-57
2022/11/20 12:55:04;;;;;;;;;;;;;;;19.65;73.79;100446.25;7417322;19;1628;-57
2022/11/20 12:57:36;;;;;;;;;;;;;;;19.55;73.61;100437.41;7416389;19;2202;-57
2022/11/20 13:00:16;;;;;;;;;;;;;;;19.56;73.33;100423.84;7418872;19;1612;-57
2022/11/20 13:03:01;;;;;;;;;;;;;;;19.38;74.33;100437.19;7415871;19;1615;-66
2022/11/20 13:05:37;;;;;;;;;;;;;;;19.32;74.38;100419.00;7418586;19;1629;-68
2022/11/20 13:08:06;;;;;;;;;;;;;;;19.36;74.98;100430.25;7410890;19;1535;-69
2022/11/20 13:10:38;;;;;;;;;;;;;;;19.28;73.64;100418.44;7417551;19;1539;-67
2022/11/20 13:13:14;;;;;;;;;;;;;;;19.38;74.30;100428.28;7416487;19;1558;-77
2022/11/20 13:15:47;;;;;;;;;;;;;;;19.30;74.39;100422.78;7418342;19;1537;-62